METAR Data
IDs: Format: Raw Decoded Include TAF

Data at: 1700 UTC 19 Sep 2018

KMCC 191650Z AUTO 31004KT 8SM CLR 19/09 A2993 RMK AO2
KMCC 191630Z AUTO 00000KT 8SM CLR 18/10 A2992 RMK AO2
KMCC 191610Z AUTO 00000KT 8SM CLR 17/10 A2992 RMK AO2
KMCC 191550Z AUTO 00000KT 7SM CLR 17/10 A2992 RMK AO2
KMCC 191530Z AUTO 00000KT 7SM CLR 15/10 A2991 RMK AO2
KMCC 191510Z AUTO 00000KT 7SM CLR 15/10 A2991 RMK AO2
KMCC 191450Z AUTO 12003KT 7SM CLR 14/10 A2991 RMK AO2
KMCC 191430Z AUTO 12005KT 8SM CLR 14/09 A2990 RMK AO2
KMCC 191410Z AUTO 11005KT 8SM CLR 13/09 A2990 RMK AO2
KMCC 191350Z AUTO 11006KT 8SM CLR 13/09 A2989 RMK AO2
KMCC 191330Z AUTO 11003KT 10SM CLR 13/09 A2989 RMK AO2
KMCC 191310Z AUTO 10003KT 10SM CLR 13/09 A2988 RMK AO2
KMCC 191250Z AUTO 11004KT 10SM CLR 13/09 A2987 RMK AO2
KMCC 191230Z AUTO 12004KT 10SM CLR 13/09 A2987 RMK AO2
KMCC 191210Z AUTO 13005KT 10SM CLR 13/09 A2987 RMK AO2
KMCC 191150Z AUTO 13004KT 10SM CLR 13/09 A2987 RMK AO2
KMCC 191130Z AUTO 15005KT 10SM CLR 13/09 A2987 RMK AO2
KMCC 191110Z AUTO 17004KT 10SM CLR 13/09 A2986 RMK AO2
KMCC 191050Z AUTO 15005KT 10SM FEW046 13/09 A2986 RMK AO2
KMCC 191030Z AUTO 16006KT 10SM CLR 13/09 A2986 RMK AO2
KMCC 191010Z AUTO 14006KT 10SM CLR 13/09 A2986 RMK AO2
KMCC 190950Z AUTO 13005KT 10SM CLR 14/09 A2987 RMK AO2
KMCC 190930Z AUTO 12005KT 10SM CLR 14/09 A2987 RMK AO2
KMCC 190910Z AUTO 13005KT 10SM CLR 14/09 A2986 RMK AO2
KMCC 190850Z AUTO 13005KT 10SM CLR 14/09 A2987 RMK AO2
KMCC 190830Z AUTO 13006KT 10SM CLR 15/10 A2986 RMK AO2
KMCC 190810Z AUTO 15005KT 10SM CLR 15/09 A2986 RMK AO2
KMCC 190750Z AUTO 15008KT 10SM CLR 15/10 A2986 RMK AO2
KMCC 190730Z AUTO 16007KT 10SM CLR 15/10 A2986 RMK AO2
KMCC 190710Z AUTO 10SM CLR 16/10 A2985 RMK AO2
KMCC 190650Z AUTO 14007KT 10SM CLR 16/10 A2985 RMK AO2
KMCC 190630Z AUTO 15007KT 10SM CLR 16/10 A2985 RMK AO2
KMCC 190610Z AUTO 14006KT 10SM CLR 17/10 A2985 RMK AO2
KMCC 190550Z AUTO 14005KT 10SM CLR 17/10 A2985 RMK AO2
KMCC 190530Z AUTO 15005KT 10SM CLR 18/10 A2985 RMK AO2
KMCC 190510Z AUTO 18004KT 10SM CLR 18/10 A2985 RMK AO2
KMCC 190450Z AUTO 21005KT 10SM CLR 19/10 A2985 RMK AO2
KMCC 190430Z AUTO 21005KT 10SM CLR 20/10 A2985 RMK AO2
KMCC 190410Z AUTO 21006KT 10SM CLR 20/09 A2985 RMK AO2
KMCC 190350Z AUTO 19004KT 10SM CLR 21/09 A2985 RMK AO2
KMCC 190330Z AUTO 21005KT 10SM CLR 21/09 A2984 RMK AO2
KMCC 190310Z AUTO 22006KT 10SM CLR 22/08 A2984 RMK AO2
KMCC 190250Z AUTO 23009KT 10SM CLR 23/05 A2984 RMK AO2
KMCC 190230Z AUTO 00000KT 10SM CLR 23/05 A2984 RMK AO2
KMCC 190210Z AUTO 00000KT 10SM CLR 24/05 A2983 RMK AO2
KMCC 190150Z AUTO 00000KT 10SM CLR 25/05 A2983 RMK AO2
KMCC 190130Z AUTO 31003KT 10SM CLR 26/05 A2983 RMK AO2
KMCC 190110Z AUTO 31003KT 10SM CLR 27/05 A2983 RMK AO2
KMCC 190050Z AUTO 30004KT 10SM CLR 27/04 A2984 RMK AO2
KMCC 190030Z AUTO 30004KT 10SM CLR 27/05 A2984 RMK AO2
KMCC 190010Z AUTO 26003KT 10SM CLR 27/05 A2984 RMK AO2
KMCC 182350Z AUTO 29003KT 10SM CLR 27/05 A2985 RMK AO2
KMCC 182330Z AUTO 26003KT 10SM CLR 27/05 A2985 RMK AO2
KMCC 182310Z AUTO 26006KT 10SM CLR 27/05 A2986 RMK AO2
KMCC 182250Z AUTO 25005KT 10SM CLR 27/06 A2986 RMK AO2
KMCC 182230Z AUTO 23004KT 10SM CLR 26/06 A2987 RMK AO2
KMCC 182210Z AUTO 25004KT 10SM CLR 26/05 A2987 RMK AO2
KMCC 182150Z AUTO 31003KT 10SM CLR 26/08 A2988 RMK AO2
KMCC 182130Z AUTO 00000KT 10SM CLR 25/08 A2989 RMK AO2
KMCC 182110Z AUTO 31004KT 10SM CLR 25/08 A2990 RMK AO2
KMCC 182050Z AUTO 27005KT 10SM CLR 25/08 A2991 RMK AO2
KMCC 182030Z AUTO 20004KT 10SM CLR 24/08 A2992 RMK AO2
KMCC 182010Z AUTO 25006KT 9SM CLR 24/08 A2992 RMK AO2
KMCC 181950Z AUTO 21003KT 10SM CLR 23/08 A2993 RMK AO2
KMCC 181930Z AUTO 00000KT 10SM CLR 23/08 A2994 RMK AO2
KMCC 181910Z AUTO 00000KT 10SM CLR 22/08 A2995 RMK AO2
KMCC 181850Z AUTO 27004KT 9SM CLR 22/09 A2995 RMK AO2
KMCC 181830Z AUTO 00000KT 10SM CLR 20/09 A2996 RMK AO2
KMCC 181810Z AUTO 30003KT 9SM CLR 20/10 A2997 RMK AO2
KMCC 181750Z AUTO 00000KT 10SM CLR 19/10 A2997 RMK AO2
KMCC 181730Z AUTO 13005KT 8SM CLR 18/10 A2998 RMK AO2
KMCC 181710Z AUTO 20004KT 7SM CLR 18/10 A2997 RMK AO2
KMCC 181650Z AUTO 18004KT 9SM CLR 17/10 A2998 RMK AO2
KMCC 181630Z AUTO 12003KT 8SM CLR 16/10 A2998 RMK AO2
KMCC 181610Z AUTO 13005KT 8SM CLR 15/10 A2998 RMK AO2
KMCC 181550Z AUTO 15004KT 7SM CLR 15/10 A2998 RMK AO2
KMCC 181530Z AUTO 14007KT 8SM CLR 14/11 A2997 RMK AO2
KMCC 181510Z AUTO 15006KT 7SM CLR 14/11 A2997 RMK AO2
KMCC 181450Z AUTO 14007KT 7SM CLR 13/10 A2997 RMK AO2
KMCC 181430Z AUTO 14007KT 7SM CLR 13/10 A2996 RMK AO2
KMCC 181410Z AUTO 13007KT 8SM CLR 12/10 A2995 RMK AO2
KMCC 181350Z AUTO 14008KT 7SM CLR 12/10 A2996 RMK AO2
KMCC 181330Z AUTO 14007KT 9SM CLR 12/10 A2995 RMK AO2
KMCC 181310Z AUTO 13006KT 9SM CLR 12/10 A2994 RMK AO2
KMCC 181250Z AUTO 14006KT 9SM CLR 12/10 A2994 RMK AO2
KMCC 181230Z AUTO 15006KT 10SM CLR 12/10 A2994 RMK AO2
KMCC 181210Z AUTO 15007KT 10SM CLR 12/10 A2993 RMK AO2
KMCC 181150Z AUTO 15006KT 10SM CLR 12/10 A2993 RMK AO2
KMCC 181130Z AUTO 16006KT 10SM FEW046 12/10 A2993 RMK AO2
KMCC 181110Z AUTO 14007KT 10SM FEW048 13/10 A2993 RMK AO2
KMCC 181050Z AUTO 14009KT 10SM CLR 13/10 A2993 RMK AO2
KMCC 181030Z AUTO 14007KT 10SM CLR 13/10 A2993 RMK AO2
KMCC 181010Z AUTO 14007KT 10SM CLR 13/10 A2993 RMK AO2
KMCC 180950Z AUTO 15006KT 10SM CLR 13/10 A2994 RMK AO2
KMCC 180930Z AUTO 14007KT 10SM CLR 13/10 A2994 RMK AO2
KMCC 180910Z AUTO 14007KT 10SM CLR 13/10 A2994 RMK AO2
KMCC 180850Z AUTO 15007KT 10SM CLR 14/10 A2994 RMK AO2
KMCC 180830Z AUTO 15008KT 10SM CLR 14/10 A2993 RMK AO2
KMCC 180810Z AUTO 15007KT 10SM CLR 14/10 A2994 RMK AO2
KMCC 180750Z AUTO 17007KT 10SM CLR 14/10 A2994 RMK AO2
KMCC 180730Z AUTO 15009KT 10SM FEW036 14/10 A2994 RMK AO2
KMCC 180710Z AUTO 17010G15KT 10SM FEW036 15/10 A2994 RMK AO2
KMCC 180650Z AUTO 16010KT 10SM FEW039 15/10 A2994 RMK AO2
KMCC 180630Z AUTO 16008KT 10SM SCT043 SCT049 15/10 A2994 RMK AO2
KMCC 180610Z AUTO 16007KT 10SM FEW043 15/09 A2993 RMK AO2
KMCC 180550Z AUTO 15007KT 10SM CLR 16/09 A2993 RMK AO2
KMCC 180530Z AUTO 17009KT 10SM CLR 17/09 A2993 RMK AO2
KMCC 180510Z AUTO 18008KT 10SM CLR 17/09 A2993 RMK AO2